• Join FlightAware (Why Join?)
  • Login
  • US Flag 
02:21AM EDT


 

Airport Tracker/Info


-or-


 

Live Flight TrackerFlight Track Log ✈ AWE1940 ✈ 18-Aug-2013 ✈ KIAH - KCLT

Flight Track Log - Related Links

Times and Time Zones

All times are in EDT time to prevent confusion due to time zone crossing. See the AWE1940 flight status page for this flight to view local times or setup timezone preferences in your user account.

Time Position Orientation Groundspeed Altitude Reporting Facility
EDT Latitude Longitude Course Direction KTS MPH feet Rate Location/Type
06:40PM 29.9572 -95.3392 108° East 177 204 900  Level Houston Center
06:41PM 29.9353 -95.2622 108° East 246 283 3,200 1,920 Climbing Houston Center
06:42PM 29.9367 -95.1850 89° East 263 303 5,100 1,560 Climbing Houston Center
06:43PM 29.9400 -95.0858 88° East 271 312 6,400 1,740 Climbing Houston Center
06:44PM 29.9306 -95.0014 97° East 277 319 8,900 2,220 Climbing Houston Center
06:45PM 29.9225 -94.9081 96° East 286 329 10,900 1,620 Climbing Houston Center
06:46PM 29.9108 -94.7889 96° East 337 388 12,300 1,620 Climbing Houston Center
06:47PM 29.8989 -94.6739 97° East 380 437 14,300 1,980 Climbing Houston Center
06:48PM 29.8861 -94.5494 97° East 389 448 16,400 1,740 Climbing Houston Center
06:49PM 29.8739 -94.4217 96° East 395 455 18,000 1,560 Climbing Houston Center
06:50PM 29.8775 -94.2894 88° East 414 476 19,700 1,500 Climbing Houston Center
06:51PM 29.9111 -94.1550 74° East 424 488 21,100 1,440 Climbing Houston Center
06:52PM 29.9447 -94.0158 74° East 440 506 22,700 1,500 Climbing Houston Center
06:53PM 29.9839 -93.8550 74° East 445 512 24,200 1,260 Climbing Houston Center
06:54PM 30.0175 -93.7131 75° East 460 529 25,300 1,140 Climbing Houston Center
06:55PM 30.0503 -93.5706 75° East 466 536 26,600 1,380 Climbing Houston Center
06:56PM 30.0822 -93.4303 75° East 461 531 28,200 1,320 Climbing Houston Center
06:57PM 30.1158 -93.2892 75° East 463 533 29,400 960 Climbing Houston Center
06:58PM 30.1558 -93.1175 75° East 466 536 30,200 780 Climbing Houston Center
06:59PM 30.1942 -92.9719 73° East 476 548 31,000 360 Climbing Houston Center
07:00PM 30.2553 -92.8375 62° Northeast 474 545 31,000  Level Houston Center
07:01PM 30.3156 -92.7033 62° Northeast 475 547 31,000  Level Houston Center
07:02PM 30.3756 -92.5678 63° Northeast 474 545 31,000  Level Houston Center
07:03PM 30.4358 -92.4325 63° Northeast 475 547 31,000  Level Houston Center
07:04PM 30.5019 -92.2794 63° Northeast 477 549 31,000  Level Houston Center
07:05PM 30.5628 -92.1444 62° Northeast 476 548 31,000  Level Houston Center
07:06PM 30.6222 -92.0081 63° Northeast 477 549 31,000  Level Houston Center
07:08PM 30.6958 -91.8419 63° Northeast 484 557 31,000  Level Houston Center
07:09PM 30.7578 -91.7042 62° Northeast 484 557 31,000  Level Houston Center
07:10PM 30.8175 -91.5647 63° Northeast 485 558 31,000  Level Houston Center
07:11PM 30.8781 -91.4253 63° Northeast 485 558 31,000  Level Houston Center
07:12PM 30.9392 -91.2858 63° Northeast 485 558 31,000  Level Houston Center
07:13PM 30.9989 -91.1467 63° Northeast 485 558 31,000  Level Houston Center
07:14PM 31.0700 -90.9797 64° Northeast 485 558 31,000  Level Houston Center
07:15PM 31.1306 -90.8378 63° Northeast 486 559 31,000  Level Houston Center
07:16PM 31.1928 -90.6950 63° Northeast 489 563 31,000  Level Houston Center
07:17PM 31.2528 -90.5525 64° Northeast 489 563 31,000  Level Houston Center
07:18PM 31.3119 -90.4097 64° Northeast 488 562 31,000  Level Houston Center
07:19PM 31.3711 -90.2683 64° Northeast 485 558 31,000  Level Houston Center
07:20PM 31.4311 -90.1261 64° Northeast 485 558 31,000  Level Houston Center
07:21PM 31.4897 -89.9850 64° Northeast 481 554 31,000  Level Houston Center
07:22PM 31.5611 -89.8144 64° Northeast 485 558 31,000 -60 Level Houston Center
07:23PM 31.6203 -89.6722 64° Northeast 485 558 30,900 -1,020 Descending Houston Center
07:24PM 31.6836 -89.5194 64° Northeast 488 562 29,000 -960 Descending Houston Center
07:25PM 31.7433 -89.3733 64° Northeast 493 567 29,000  Level Houston Center
07:26PM 31.8044 -89.2275 64° Northeast 496 571 29,000  Level Houston Center
07:27PM 31.8636 -89.0803 65° Northeast 498 573 29,000  Level Houston Center
07:28PM 31.9233 -88.9322 65° Northeast 500 575 29,000  Level Houston Center
07:29PM 31.9828 -88.7828 65° Northeast 505 581 29,000  Level Houston Center
07:30PM 32.0431 -88.6358 64° Northeast 500 575 29,000  Level Houston Center
07:31PM 32.1133 -88.4564 65° Northeast 502 578 29,000  Level Houston Center
07:32PM 32.1667 -88.3325 63° Northeast 508 585 29,000 -540 Level Atlanta Center
07:33PM 32.2236 -88.1906 65° Northeast 500 575 28,000 -1,020 Descending Atlanta Center
07:34PM 32.2806 -88.0481 65° Northeast 495 570 27,000 -540 Descending Atlanta Center
07:35PM 32.3375 -87.9008 65° Northeast 490 564 27,000  Level Atlanta Center
07:36PM 32.3939 -87.7606 65° Northeast 485 558 27,000  Level Atlanta Center
07:37PM 32.4525 -87.6128 65° Northeast 478 550 27,000  Level Atlanta Center
07:38PM 32.4981 -87.4792 68° East 478 550 27,000  Level Atlanta Center
07:39PM 32.5744 -87.3542 54° Northeast 464 534 27,000  Level Atlanta Center
07:40PM 32.6569 -87.2411 49° Northeast 464 534 27,000  Level Atlanta Center
07:41PM 32.7453 -87.1258 48° Northeast 459 528 27,000  Level Atlanta Center
07:42PM 32.8339 -87.0078 48° Northeast 464 534 27,000  Level Atlanta Center
07:43PM 32.9244 -86.8847 49° Northeast 476 548 27,000  Level Atlanta Center
07:44PM 33.0131 -86.7514 52° Northeast 481 554 27,000  Level Atlanta Center
07:45PM 33.0686 -86.5969 67° East 474 545 27,000  Level Atlanta Center
07:46PM 33.1111 -86.4444 72° East 484 557 27,000  Level Atlanta Center
07:47PM 33.1517 -86.2892 73° East 484 557 27,000  Level Atlanta Center
07:48PM 33.1919 -86.1339 73° East 484 557 27,000  Level Atlanta Center
07:49PM 33.2322 -85.9733 73° East 489 563 27,000  Level Atlanta Center
07:50PM 33.2722 -85.8153 73° East 499 574 27,000 600 Level Atlanta Center
07:51PM 33.3161 -85.6622 71° East 499 574 28,200 960 Climbing Atlanta Center
07:52PM 33.3533 -85.5286 72° East 471 542 29,000 360 Climbing Atlanta Center
07:53PM 33.3947 -85.3600 74° East 476 548 29,000  Level Atlanta Center
07:54PM 33.4361 -85.1989 73° East 489 563 29,000  Level Atlanta Center
07:55PM 33.4750 -85.0425 73° East 500 575 29,000  Level Atlanta Center
07:56PM 33.5158 -84.8833 73° East 495 570 29,000  Level Atlanta Center
07:57PM 33.5564 -84.7244 73° East 495 570 29,000  Level Atlanta Center
07:58PM 33.5928 -84.5675 74° East 495 570 29,000  Level Atlanta Center
07:59PM 33.6331 -84.4131 73° East 489 563 29,000  Level Atlanta Center
08:00PM 33.6750 -84.2558 72° East 489 563 29,000  Level Atlanta Center
08:01PM 33.7211 -84.0961 71° East 495 570 29,000  Level Atlanta Center
08:02PM 33.7650 -83.9439 71° East 495 570 29,000  Level Atlanta Center
08:03PM 33.8106 -83.7864 71° East 489 563 29,000  Level Atlanta Center
08:04PM 33.8939 -83.6583 52° Northeast 477 549 29,000  Level Atlanta Center
08:05PM 33.9914 -83.5328 47° Northeast 492 566 29,000  Level Atlanta Center
08:06PM 34.1036 -83.4292 37° Northeast 505 581 29,000  Level Atlanta Center
08:07PM 34.2158 -83.3253 37° Northeast 505 581 29,000  Level Atlanta Center
08:08PM 34.3300 -83.2239 36° Northeast 505 581 29,000  Level Atlanta Center
08:09PM 34.4442 -83.1169 38° Northeast 505 581 29,000  Level Atlanta Center
08:10PM 34.5436 -83.0250 37° Northeast 511 588 29,000 -300 Level Atlanta Center
08:11PM 34.6697 -82.9072 38° Northeast 510 587 28,500 -720 Descending Atlanta Center
08:12PM 34.7519 -82.7672 54° Northeast 492 566 27,600 -780 Descending Atlanta Center
08:13PM 34.7753 -82.6075 80° East 478 550 27,000 -1,740 Descending Atlanta Center
08:14PM 34.7689 -82.4408 93° East 463 533 24,200 -1,500 Descending Atlanta Center
08:15PM 34.7625 -82.2739 93° East 479 551 24,000 -180 Descending Atlanta Center
08:16PM 34.7558 -82.1147 93° East 479 551 23,900 -1,560 Descending Atlanta Center
08:17PM 34.7081 -81.9972 116° Southeast 404 465 20,900 -3,060 Descending Atlanta Center
08:18PM 34.7036 -81.8608 92° East 404 465 17,800 -2,340 Descending Atlanta Center
08:19PM 34.7142 -81.7469 84° East 390 449 16,300 -1,980 Descending Atlanta Center
08:20PM 34.7244 -81.6278 84° East 372 428 13,900 -2,340 Descending Atlanta Center
08:21PM 34.7494 -81.5208 74° East 332 382 12,000 -960 Descending Atlanta Center
08:22PM 34.8122 -81.4381 47° Northeast 316 364 12,000 -720 Level Atlanta Center
08:23PM 34.8692 -81.3653 46° Northeast 330 380 10,700 -1,560 Descending Atlanta Center
08:24PM 34.9342 -81.2847 45° Northeast 310 357 9,200 -840 Descending Atlanta Center
08:25PM 34.9908 -81.2094 47° Northeast 301 346 9,000 -120 Descending Atlanta Center
08:26PM 35.0578 -81.1258 46° Northeast 301 346 9,000  Level Atlanta Center
08:27PM 35.1147 -81.0681 40° Northeast 309 356 9,000 -240 Level Atlanta Center
08:28PM 35.1878 -81.0681 360° North 264 304 8,600 -1,140 Descending Atlanta Center
08:29PM 35.2694 -81.0778 354° North 255 293 6,600 -1,560 Descending Atlanta Center
08:30PM 35.3364 -81.0831 356° North 227 261 5,200 -780 Descending Atlanta Center
08:31PM 35.3992 -81.0883 356° North 218 251 5,000 -120 Descending Atlanta Center
08:32PM 35.4486 -81.0661 20° North 227 261 5,000 -300 Level Atlanta Center
08:33PM 35.4283 -81.0033 112° Southeast 201 231 4,500 -600 Descending Atlanta Center
08:34PM 35.3819 -80.9844 162° South 178 205 3,800 -900 Descending Atlanta Center
08:35PM 35.3358 -80.9811 177° South 176 203 2,800 -960 Descending Atlanta Center
08:36PM 35.2919 -80.9750 174° South 153 176 2,000 -840 Descending Atlanta Center
08:37PM 35.2503 -80.9717 176° South 149 171 1,200 -840 Descending Atlanta Center
08:39PM 35.2137 -80.9491 158° South  Level Estimated